Time;durP1;ratioP1;P1;durP2;ratioP2;P2;SDS_P1;SDS_P2;PMS_P1;PMS_P2;Temp;Humidity;BMP_temperature;BMP_pressure;BME280_temperature;BME280_humidity;BME280_pressure;Samples;Min_cycle;Max_cycle;Signal;HPM_P1;HPM_P2
2023/03/11 00:00:50;;;;;;;2.05;1.63;;;3.30;91.00;;;;;;7605662;19;20481;-76
2023/03/11 00:03:23;;;;;;;1.75;1.50;;;3.20;90.70;;;;;;7596872;19;20037;-77
2023/03/11 00:05:57;;;;;;;2.67;1.77;;;3.30;90.20;;;;;;7603205;19;20026;-77
2023/03/11 00:08:31;;;;;;;2.75;1.70;;;3.30;89.10;;;;;;7596883;19;20006;-79
2023/03/11 00:11:03;;;;;;;3.17;1.83;;;3.30;89.60;;;;;;7601755;19;20051;-76
2023/03/11 00:13:36;;;;;;;2.90;1.50;;;3.30;89.90;;;;;;7604395;19;20101;-77
2023/03/11 00:16:09;;;;;;;3.30;1.90;;;3.30;89.40;;;;;;7602735;19;20918;-76
2023/03/11 00:18:41;;;;;;;2.53;1.80;;;3.30;90.00;;;;;;7599710;19;20074;-76
2023/03/11 00:21:15;;;;;;;1.40;1.30;;;3.20;88.40;;;;;;7605648;19;20650;-78
2023/03/11 00:23:48;;;;;;;2.55;2.33;;;3.20;89.60;;;;;;7603574;19;20023;-76
2023/03/11 00:26:20;;;;;;;1.52;1.42;;;3.10;90.10;;;;;;7611028;19;20030;-76
2023/03/11 00:28:54;;;;;;;2.35;1.60;;;3.10;90.00;;;;;;7597256;19;20492;-76
2023/03/11 00:31:27;;;;;;;2.05;1.67;;;3.00;90.10;;;;;;7601410;19;20807;-77
2023/03/11 00:33:59;;;;;;;1.73;1.60;;;3.00;89.50;;;;;;7606369;19;21057;-77
2023/03/11 00:36:32;;;;;;;2.60;1.63;;;2.90;88.30;;;;;;7594144;19;20019;-80
2023/03/11 00:39:09;;;;;;;1.50;1.33;;;2.90;88.90;;;;;;7603515;19;20023;-77
2023/03/11 00:41:41;;;;;;;2.83;1.50;;;2.90;88.40;;;;;;7597449;19;20011;-77
2023/03/11 00:44:14;;;;;;;1.45;1.33;;;2.90;88.80;;;;;;7609703;19;20786;-75
2023/03/11 00:46:46;;;;;;;1.42;1.02;;;2.80;87.40;;;;;;7610459;19;20029;-75
2023/03/11 00:49:18;;;;;;;1.77;1.35;;;2.90;87.70;;;;;;7609334;19;20022;-76
2023/03/11 00:51:50;;;;;;;2.85;1.45;;;2.80;88.00;;;;;;7603880;19;20019;-75
2023/03/11 00:54:22;;;;;;;4.18;1.50;;;2.80;88.80;;;;;;7609239;19;20026;-76
2023/03/11 00:56:54;;;;;;;2.22;1.40;;;2.70;88.20;;;;;;7616532;19;20328;-76
2023/03/11 00:59:27;;;;;;;1.40;1.10;;;2.60;87.70;;;;;;7604520;19;20019;-76
2023/03/11 01:01:59;;;;;;;1.70;1.60;;;2.60;88.20;;;;;;7614332;19;20869;-75
2023/03/11 01:04:32;;;;;;;1.35;1.20;;;2.70;88.20;;;;;;7603265;19;20464;-79
2023/03/11 01:07:04;;;;;;;2.17;1.55;;;2.70;88.20;;;;;;7608318;19;20026;-77
2023/03/11 01:09:37;;;;;;;2.85;1.58;;;2.60;88.80;;;;;;7603599;19;20022;-76
2023/03/11 01:12:09;;;;;;;2.30;1.80;;;2.60;88.20;;;;;;7609699;19;21063;-76
2023/03/11 01:14:41;;;;;;;1.70;1.30;;;2.60;88.50;;;;;;7603508;19;20011;-77
2023/03/11 01:17:13;;;;;;;3.65;1.80;;;2.70;89.10;;;;;;7614266;19;20052;-76
2023/03/11 01:19:46;;;;;;;2.47;1.75;;;2.70;90.00;;;;;;7605373;19;20046;-76
2023/03/11 01:22:19;;;;;;;3.28;1.58;;;2.70;88.90;;;;;;7607476;19;20014;-77
2023/03/11 01:24:52;;;;;;;1.73;1.40;;;2.70;89.30;;;;;;7597602;19;20018;-76
2023/03/11 01:27:24;;;;;;;2.03;1.50;;;2.70;89.50;;;;;;7610567;19;20019;-76
2023/03/11 01:29:56;;;;;;;2.95;1.45;;;2.70;89.80;;;;;;7594542;19;20018;-76
2023/03/11 01:32:29;;;;;;;2.90;1.70;;;2.80;90.20;;;;;;7607103;19;21081;-76
2023/03/11 01:35:01;;;;;;;2.13;1.23;;;2.70;89.20;;;;;;7609094;19;20029;-77
2023/03/11 01:37:34;;;;;;;1.50;1.40;;;2.70;88.60;;;;;;7610382;19;20018;-79
2023/03/11 01:40:10;;;;;;;2.70;1.88;;;2.70;90.00;;;;;;7606788;19;20034;-76
2023/03/11 01:42:42;;;;;;;2.00;1.60;;;2.70;89.50;;;;;;7606542;19;20022;-78
2023/03/11 01:45:29;;;;;;;3.90;2.55;;;2.60;89.70;;;;;;7610534;19;20055;-77
2023/03/11 01:48:01;;;;;;;2.72;1.80;;;2.60;89.60;;;;;;7607401;19;20025;-76
2023/03/11 01:50:41;;;;;;;2.20;1.67;;;2.60;89.70;;;;;;7611090;19;20018;-77
2023/03/11 01:53:16;;;;;;;1.55;1.38;;;2.60;89.00;;;;;;7605540;19;20033;-78
2023/03/11 01:55:48;;;;;;;7.10;1.98;;;2.60;90.00;;;;;;7604720;19;20018;-78
2023/03/11 01:58:25;;;;;;;2.28;1.83;;;2.60;90.50;;;;;;7602496;19;20213;-78
2023/03/11 02:01:00;;;;;;;2.80;1.88;;;2.60;90.60;;;;;;7592849;19;20026;-78
2023/03/11 02:03:35;;;;;;;2.58;1.70;;;2.60;90.10;;;;;;7601818;19;20025;-74
2023/03/11 02:06:16;;;;;;;2.30;1.70;;;2.60;90.40;;;;;;7603565;19;20134;-75
2023/03/11 02:08:49;;;;;;;2.45;1.67;;;2.50;90.50;;;;;;7601553;19;20029;-75
2023/03/11 02:11:25;;;;;;;3.15;1.85;;;2.50;90.60;;;;;;7601778;19;21041;-75
2023/03/11 02:14:02;;;;;;;3.08;2.05;;;2.40;90.60;;;;;;7581134;19;20043;-78
2023/03/11 02:16:34;;;;;;;4.22;1.88;;;2.40;91.00;;;;;;7589273;19;20099;-77
2023/03/11 02:19:20;;;;;;;2.65;1.80;;;2.30;90.90;;;;;;7599586;19;21228;-77
2023/03/11 02:21:55;;;;;;;3.65;1.83;;;2.30;90.90;;;;;;7593055;19;20015;-77
2023/03/11 02:24:33;;;;;;;2.20;1.60;;;2.30;90.60;;;;;;7593131;19;20015;-78
2023/03/11 02:27:08;;;;;;;3.20;1.73;;;2.20;90.60;;;;;;7605873;19;20022;-77
2023/03/11 02:29:42;;;;;;;3.75;2.25;;;2.20;90.50;;;;;;7593592;19;20014;-79
2023/03/11 02:32:15;;;;;;;2.97;1.67;;;2.20;90.90;;;;;;7598413;19;20010;-78
2023/03/11 02:34:48;;;;;;;2.45;1.75;;;2.20;91.10;;;;;;7586054;19;20037;-81
2023/03/11 02:37:20;;;;;;;3.25;1.70;;;2.10;91.00;;;;;;7591950;19;20024;-77
2023/03/11 02:40:22;;;;;;;2.38;1.73;;;2.10;91.00;;;;;;7601743;19;20109;-78
2023/03/11 02:43:02;;;;;;;2.45;1.63;;;2.10;91.30;;;;;;7596153;19;20014;-75
2023/03/11 02:45:38;;;;;;;3.55;1.52;;;2.10;91.30;;;;;;7600215;19;20183;-74
2023/03/11 02:48:13;;;;;;;2.50;1.80;;;2.00;91.80;;;;;;7598306;19;20018;-75
2023/03/11 02:50:46;;;;;;;2.92;1.80;;;2.00;91.90;;;;;;7594813;19;20098;-74
2023/03/11 02:53:20;;;;;;;2.40;1.75;;;2.00;92.00;;;;;;7598153;19;20859;-75
2023/03/11 02:55:53;;;;;;;3.13;1.97;;;2.00;91.30;;;;;;7594920;19;20381;-76
2023/03/11 02:58:25;;;;;;;3.22;1.25;;;2.00;91.30;;;;;;7608424;19;20014;-75
2023/03/11 03:00:57;;;;;;;2.85;1.77;;;2.00;91.20;;;;;;7591422;19;20529;-80
2023/03/11 03:03:34;;;;;;;2.50;1.83;;;2.00;91.30;;;;;;7597102;19;20022;-79
2023/03/11 03:06:06;;;;;;;2.92;1.92;;;1.90;91.70;;;;;;7580793;19;20150;-78
2023/03/11 03:08:38;;;;;;;3.42;2.10;;;1.90;91.50;;;;;;7599055;19;20108;-80
2023/03/11 03:11:11;;;;;;;2.28;1.70;;;1.90;91.10;;;;;;7598591;19;20052;-78
2023/03/11 03:13:44;;;;;;;3.60;1.80;;;1.80;90.90;;;;;;7591097;19;20014;-77
2023/03/11 03:16:16;;;;;;;2.78;1.98;;;1.90;90.90;;;;;;7593117;19;20031;-78
2023/03/11 03:18:50;;;;;;;3.53;1.83;;;1.90;90.50;;;;;;7592804;19;20014;-77
2023/03/11 03:21:23;;;;;;;2.95;2.00;;;1.80;91.00;;;;;;7588899;19;20026;-74
2023/03/11 03:23:55;;;;;;;1.70;1.52;;;1.80;90.70;;;;;;7597631;19;20015;-75
2023/03/11 03:26:28;;;;;;;2.72;1.67;;;1.70;90.40;;;;;;7601423;19;20018;-78
2023/03/11 03:29:00;;;;;;;2.70;1.70;;;1.80;90.00;;;;;;7594780;19;20018;-77
2023/03/11 03:31:33;;;;;;;2.00;1.45;;;1.70;90.50;;;;;;7589689;19;20098;-77
2023/03/11 03:34:06;;;;;;;3.67;1.80;;;1.70;90.40;;;;;;7593987;19;20121;-81
2023/03/11 03:36:39;;;;;;;3.67;1.92;;;1.70;90.00;;;;;;7592556;19;20019;-78
2023/03/11 03:39:14;;;;;;;3.90;1.67;;;1.70;90.10;;;;;;7604820;19;20014;-77
2023/03/11 03:41:46;;;;;;;2.47;1.60;;;1.70;88.00;;;;;;7595652;19;20025;-76
2023/03/11 03:44:18;;;;;;;4.45;1.90;;;1.60;87.50;;;;;;7594275;19;20022;-78
2023/03/11 03:46:51;;;;;;;2.03;1.35;;;1.60;88.30;;;;;;7586318;19;22355;-77
2023/03/11 03:49:23;;;;;;;1.90;1.20;;;1.60;88.10;;;;;;7595051;19;20021;-78
2023/03/11 03:51:56;;;;;;;3.83;1.95;;;1.60;88.50;;;;;;7591540;19;20017;-78
2023/03/11 03:54:36;;;;;;;2.17;1.58;;;1.50;87.90;;;;;;7593753;19;20056;-77
2023/03/11 03:57:08;;;;;;;2.00;1.20;;;1.50;88.70;;;;;;7590838;19;20455;-79
2023/03/11 03:59:48;;;;;;;2.17;1.42;;;1.50;88.60;;;;;;7593558;19;20048;-77
2023/03/11 04:02:20;;;;;;;2.78;1.38;;;1.60;88.40;;;;;;7588000;19;20396;-78
2023/03/11 04:04:53;;;;;;;2.63;1.48;;;1.50;88.40;;;;;;7596653;19;20085;-77
2023/03/11 04:07:25;;;;;;;1.98;1.20;;;1.50;89.30;;;;;;7589877;19;21941;-79
2023/03/11 04:09:57;;;;;;;1.50;1.30;;;1.50;87.90;;;;;;7597531;19;20967;-77
2023/03/11 04:12:29;;;;;;;1.67;1.20;;;1.50;88.30;;;;;;7579478;19;20014;-78
2023/03/11 04:15:02;;;;;;;2.13;1.92;;;1.50;88.30;;;;;;7588532;19;20321;-80
2023/03/11 04:17:35;;;;;;;1.63;1.30;;;1.30;88.70;;;;;;7592074;19;20043;-80
2023/03/11 04:20:09;;;;;;;1.50;1.23;;;1.40;89.70;;;;;;7608376;19;20025;-78
2023/03/11 04:22:41;;;;;;;;;;;1.30;89.70;;;;;;7597376;19;21078;-76
2023/03/11 04:25:13;;;;;;;1.35;1.23;;;1.30;89.80;;;;;;7602286;19;19945;-78
2023/03/11 04:27:48;;;;;;;1.13;1.10;;;1.40;90.20;;;;;;7600035;19;20023;-78
2023/03/11 04:30:22;;;;;;;2.13;1.27;;;1.40;89.70;;;;;;7604160;19;20011;-79
2023/03/11 04:32:59;;;;;;;1.33;1.23;;;1.40;90.00;;;;;;7608375;19;20397;-78
2023/03/11 04:35:31;;;;;;;1.77;1.30;;;1.30;89.80;;;;;;7604053;19;20019;-80
2023/03/11 04:38:04;;;;;;;5.68;1.60;;;1.30;89.80;;;;;;7578339;19;20021;-77
2023/03/11 04:40:37;;;;;;;2.25;1.58;;;1.20;90.10;;;;;;7597673;19;20018;-79
2023/03/11 04:43:09;;;;;;;2.97;1.42;;;1.30;90.50;;;;;;7597851;19;20061;-80
2023/03/11 04:45:42;;;;;;;1.58;1.33;;;1.20;90.30;;;;;;7605227;19;20363;-78
2023/03/11 04:48:14;;;;;;;1.40;1.30;;;1.20;90.50;;;;;;7600722;19;20015;-79
2023/03/11 04:50:47;;;;;;;1.47;1.20;;;1.20;90.90;;;;;;7589028;19;20026;-79
2023/03/11 04:53:20;;;;;;;2.75;1.73;;;1.20;90.90;;;;;;7603266;19;20018;-79
2023/03/11 04:55:52;;;;;;;2.90;1.48;;;1.20;91.00;;;;;;7601473;19;20013;-80
2023/03/11 04:58:25;;;;;;;4.97;2.30;;;1.20;90.80;;;;;;7594280;19;20064;-82
2023/03/11 05:00:58;;;;;;;2.67;1.85;;;1.20;91.20;;;;;;7554378;19;20426;-81
2023/03/11 05:03:31;;;;;;;4.70;1.50;;;1.10;91.10;;;;;;7571615;19;20044;-82
2023/03/11 05:06:03;;;;;;;2.47;1.50;;;1.20;90.90;;;;;;7571109;19;20038;-78
2023/03/11 05:08:36;;;;;;;2.03;1.77;;;1.10;90.90;;;;;;7583802;19;20015;-80
2023/03/11 05:11:08;;;;;;;2.10;1.65;;;1.10;91.40;;;;;;7590524;19;20026;-74
2023/03/11 05:13:41;;;;;;;2.55;1.40;;;1.20;91.50;;;;;;7597780;19;20014;-74
2023/03/11 05:16:13;;;;;;;2.08;1.58;;;1.20;91.30;;;;;;7603111;19;20022;-73
2023/03/11 05:18:45;;;;;;;3.45;1.50;;;1.20;91.40;;;;;;7563999;19;20462;-73
2023/03/11 05:21:19;;;;;;;2.38;1.55;;;1.20;91.60;;;;;;7569063;19;20022;-74
2023/03/11 05:23:51;;;;;;;2.10;1.60;;;1.30;91.70;;;;;;7573503;19;20045;-74
2023/03/11 05:26:24;;;;;;;5.30;1.80;;;1.30;91.70;;;;;;7592212;19;20014;-73
2023/03/11 05:28:57;;;;;;;1.92;1.40;;;1.30;92.20;;;;;;7590942;19;20695;-75
2023/03/11 05:31:29;;;;;;;2.05;1.60;;;1.40;91.90;;;;;;7572772;19;20557;-74
2023/03/11 05:34:01;;;;;;;2.45;1.73;;;1.40;91.80;;;;;;7575995;19;20048;-75
2023/03/11 05:36:34;;;;;;;4.07;2.10;;;1.40;91.80;;;;;;7572647;19;20017;-74
2023/03/11 05:39:07;;;;;;;3.72;2.00;;;1.30;91.60;;;;;;7586133;19;20462;-74
2023/03/11 05:41:40;;;;;;;3.45;1.75;;;1.30;91.90;;;;;;7588190;19;20083;-74
2023/03/11 05:44:12;;;;;;;3.17;1.75;;;1.30;92.00;;;;;;7581140;19;21246;-74
2023/03/11 05:46:45;;;;;;;4.00;2.25;;;1.40;92.20;;;;;;7553204;19;20395;-73
2023/03/11 05:49:20;;;;;;;2.53;1.97;;;1.40;92.50;;;;;;7574456;19;20503;-73
2023/03/11 05:51:54;;;;;;;2.97;1.92;;;1.40;92.30;;;;;;7568317;19;20240;-73
2023/03/11 05:54:30;;;;;;;2.33;1.80;;;1.40;92.20;;;;;;7557346;19;20555;-81
2023/03/11 05:57:03;;;;;;;4.97;2.70;;;1.40;92.40;;;;;;7558559;19;20006;-78
2023/03/11 05:59:37;;;;;;;3.97;2.35;;;1.40;93.00;;;;;;7568750;19;20021;-79
2023/03/11 06:02:09;;;;;;;3.90;2.25;;;1.40;92.70;;;;;;7572871;19;20015;-78
2023/03/11 06:04:43;;;;;;;4.05;2.17;;;1.40;92.30;;;;;;7560333;19;20021;-78
2023/03/11 06:07:16;;;;;;;2.37;1.87;;;1.40;92.20;;;;;;7594353;19;20086;-80
2023/03/11 06:09:51;;;;;;;5.43;2.40;;;1.50;92.40;;;;;;7582735;19;20026;-78
2023/03/11 06:12:23;;;;;;;3.30;2.13;;;1.50;92.70;;;;;;7593617;19;20011;-78
2023/03/11 06:15:06;;;;;;;2.70;2.30;;;1.50;92.00;;;;;;7595441;19;20018;-79
2023/03/11 06:17:40;;;;;;;4.85;1.90;;;1.40;90.20;;;;;;7600510;19;20676;-81
2023/03/11 06:20:12;;;;;;;4.45;2.47;;;1.40;89.40;;;;;;7600461;19;20017;-78
2023/03/11 06:22:49;;;;;;;3.20;1.85;;;1.40;87.80;;;;;;7595939;19;20018;-82
2023/03/11 06:25:22;;;;;;;4.47;2.38;;;1.50;88.10;;;;;;7605348;19;20015;-80
2023/03/11 06:27:56;;;;;;;4.68;2.10;;;1.50;86.90;;;;;;7602558;19;20025;-80
2023/03/11 06:30:29;;;;;;;2.60;1.75;;;1.40;86.50;;;;;;7594237;19;20026;-80
2023/03/11 06:33:17;;;;;;;3.25;1.90;;;1.40;86.00;;;;;;7603502;19;20027;-80
2023/03/11 06:35:57;;;;;;;2.92;1.90;;;1.40;84.50;;;;;;7585546;19;20712;-78
2023/03/11 06:38:30;;;;;;;2.72;1.60;;;1.40;83.60;;;;;;7604548;19;20032;-78
2023/03/11 06:41:04;;;;;;;5.45;2.08;;;1.40;83.70;;;;;;7601050;19;20550;-79
2023/03/11 06:43:38;;;;;;;3.22;1.73;;;1.40;84.10;;;;;;7593570;19;20018;-80
2023/03/11 06:46:17;;;;;;;3.03;1.70;;;1.40;82.20;;;;;;7597357;19;20023;-80
2023/03/11 06:48:53;;;;;;;2.95;1.60;;;1.30;80.70;;;;;;7574605;19;20014;-74
2023/03/11 06:51:27;;;;;;;3.85;1.65;;;1.40;80.70;;;;;;7597808;19;20025;-74
2023/03/11 06:53:59;;;;;;;2.10;1.80;;;1.40;79.80;;;;;;7602735;19;20026;-74
2023/03/11 06:56:32;;;;;;;4.63;2.10;;;1.30;79.40;;;;;;7609162;19;20018;-75
2023/03/11 06:59:09;;;;;;;2.65;1.63;;;1.30;78.60;;;;;;7596633;19;20283;-75
2023/03/11 07:01:41;;;;;;;2.47;1.73;;;1.40;79.10;;;;;;7601534;19;20019;-75
2023/03/11 07:04:14;;;;;;;2.38;1.70;;;1.50;79.10;;;;;;7599470;19;20022;-74
2023/03/11 07:06:46;;;;;;;6.05;1.85;;;1.50;79.10;;;;;;7598913;19;20007;-74
2023/03/11 07:09:24;;;;;;;2.67;1.77;;;1.50;78.30;;;;;;7591666;19;20647;-74
2023/03/11 07:11:56;;;;;;;4.20;1.80;;;1.60;78.60;;;;;;7597168;19;20020;-73
2023/03/11 07:14:34;;;;;;;3.92;2.20;;;1.60;78.00;;;;;;7600173;19;20037;-74
2023/03/11 07:17:07;;;;;;;2.58;1.90;;;1.60;78.80;;;;;;7590946;19;20602;-75
2023/03/11 07:19:45;;;;;;;3.50;2.05;;;1.50;79.40;;;;;;7594303;19;20131;-75
2023/03/11 07:22:17;;;;;;;3.95;1.80;;;1.60;79.80;;;;;;7583439;19;20035;-75
2023/03/11 07:24:50;;;;;;;3.90;1.88;;;1.70;79.20;;;;;;7587110;19;20018;-75
2023/03/11 07:27:22;;;;;;;4.90;2.38;;;1.70;78.60;;;;;;7607504;19;20030;-75
2023/03/11 07:29:54;;;;;;;4.25;2.22;;;1.80;79.00;;;;;;7607712;19;20011;-75
2023/03/11 07:32:27;;;;;;;5.53;3.50;;;1.90;79.40;;;;;;7608095;19;20018;-75
2023/03/11 07:34:59;;;;;;;2.80;2.22;;;1.80;79.70;;;;;;7603677;19;20018;-75
2023/03/11 07:37:31;;;;;;;4.05;2.33;;;1.80;80.70;;;;;;7585283;19;20026;-74
2023/03/11 07:40:04;;;;;;;7.60;2.40;;;1.80;81.00;;;;;;7566475;19;20022;-79
2023/03/11 07:42:36;;;;;;;4.33;2.40;;;1.80;81.10;;;;;;7585247;19;20015;-81
2023/03/11 07:45:09;;;;;;;3.67;2.60;;;1.50;81.50;;;;;;7630307;19;20279;-78
2023/03/11 07:47:41;;;;;;;3.05;2.33;;;1.60;82.70;;;;;;7638258;19;20039;-82
2023/03/11 07:50:15;;;;;;;5.35;2.90;;;1.70;82.80;;;;;;7597826;19;20026;-79
2023/03/11 07:52:48;;;;;;;3.65;2.45;;;1.80;82.70;;;;;;7574876;19;21811;-74
2023/03/11 07:55:21;;;;;;;4.18;2.17;;;2.00;82.10;;;;;;7585081;19;20074;-74
2023/03/11 07:57:53;;;;;;;2.67;2.13;;;2.10;81.00;;;;;;7566152;19;20023;-81
2023/03/11 08:00:25;;;;;;;8.07;3.13;;;2.10;80.30;;;;;;7599951;19;20033;-78
2023/03/11 08:02:58;;;;;;;4.35;2.80;;;2.20;78.90;;;;;;7592066;19;20022;-80
2023/03/11 08:05:33;;;;;;;6.03;3.17;;;2.30;79.60;;;;;;7574360;19;20011;-75
2023/03/11 08:08:05;;;;;;;3.50;2.72;;;2.40;79.10;;;;;;7516365;19;20014;-77
2023/03/11 08:10:38;;;;;;;14.52;6.22;;;2.20;77.70;;;;;;7565264;19;20591;-73
2023/03/11 08:13:10;;;;;;;8.90;4.17;;;2.20;78.10;;;;;;7586692;19;20018;-73
2023/03/11 08:15:43;;;;;;;7.05;3.13;;;2.20;78.40;;;;;;7586875;19;20014;-73
2023/03/11 08:18:15;;;;;;;3.72;2.45;;;2.40;78.10;;;;;;7601836;19;20049;-73
2023/03/11 08:20:48;;;;;;;8.52;4.70;;;2.40;77.10;;;;;;7583319;19;20025;-73
2023/03/11 08:23:21;;;;;;;17.07;8.43;;;2.50;77.40;;;;;;7573135;19;20026;-74
2023/03/11 08:25:53;;;;;;;8.20;4.20;;;2.70;77.90;;;;;;7541277;19;20364;-72
2023/03/11 08:28:25;;;;;;;7.50;4.45;;;2.80;78.20;;;;;;7581263;19;20069;-72
2023/03/11 08:30:58;;;;;;;6.88;2.90;;;2.80;76.80;;;;;;7547323;19;20024;-72
2023/03/11 08:33:30;;;;;;;7.68;3.35;;;2.80;77.50;;;;;;7570848;19;20041;-74
2023/03/11 08:36:03;;;;;;;5.00;2.85;;;2.80;77.70;;;;;;7575255;19;20400;-73
2023/03/11 08:38:35;;;;;;;7.57;3.35;;;2.90;77.30;;;;;;7578736;19;20014;-72
2023/03/11 08:41:08;;;;;;;6.85;2.83;;;2.90;77.40;;;;;;7568076;19;20808;-75
2023/03/11 08:43:41;;;;;;;3.67;2.70;;;2.90;76.80;;;;;;7579525;19;20598;-73
2023/03/11 08:46:22;;;;;;;4.00;2.65;;;3.10;76.00;;;;;;7570404;19;20014;-72
2023/03/11 08:48:55;;;;;;;8.02;2.58;;;3.10;75.10;;;;;;7572563;19;20491;-72
2023/03/11 08:51:32;;;;;;;6.05;2.45;;;3.10;75.60;;;;;;7559503;19;20022;-71
2023/03/11 08:54:05;;;;;;;2.90;1.92;;;3.20;76.30;;;;;;7574920;19;20031;-71
2023/03/11 08:56:37;;;;;;;4.18;2.70;;;3.30;74.90;;;;;;7591359;19;20966;-75
2023/03/11 08:59:09;;;;;;;5.10;2.55;;;3.30;74.10;;;;;;7584725;19;20085;-75
2023/03/11 09:01:41;;;;;;;5.57;2.97;;;3.20;73.60;;;;;;7589219;19;20121;-74
2023/03/11 09:04:13;;;;;;;4.57;3.67;;;3.20;73.40;;;;;;7596780;19;20696;-75
2023/03/11 09:06:47;;;;;;;4.20;2.35;;;3.10;73.20;;;;;;7604967;19;20027;-72
2023/03/11 09:09:22;;;;;;;3.38;2.45;;;3.10;73.50;;;;;;7585337;19;20015;-72
2023/03/11 09:11:54;;;;;;;2.70;2.20;;;3.10;74.20;;;;;;7574573;19;20048;-76
2023/03/11 09:14:26;;;;;;;6.68;2.25;;;3.20;74.40;;;;;;7596077;19;20478;-76
2023/03/11 09:16:59;;;;;;;6.57;2.67;;;3.20;74.10;;;;;;7594776;19;20047;-73
2023/03/11 09:19:31;;;;;;;4.63;2.83;;;3.10;73.70;;;;;;7583550;19;20030;-74
2023/03/11 09:22:04;;;;;;;2.83;2.00;;;3.10;74.60;;;;;;7589648;19;21001;-74
2023/03/11 09:24:36;;;;;;;8.27;2.83;;;3.30;73.60;;;;;;7561639;19;20542;-76
2023/03/11 09:27:09;;;;;;;4.40;2.17;;;3.40;72.30;;;;;;7589602;19;20014;-76
2023/03/11 09:29:42;;;;;;;6.25;2.47;;;3.30;72.30;;;;;;7593641;19;20014;-78
2023/03/11 09:32:15;;;;;;;3.55;2.30;;;3.50;73.40;;;;;;7598758;19;20011;-81
2023/03/11 09:34:47;;;;;;;5.63;2.30;;;3.70;72.20;;;;;;7555706;19;20018;-79
2023/03/11 09:37:19;;;;;;;4.03;2.28;;;3.70;69.30;;;;;;7593677;19;20456;-77
2023/03/11 09:39:51;;;;;;;3.83;2.42;;;3.80;71.40;;;;;;7600682;19;20344;-75
2023/03/11 09:42:32;;;;;;;3.67;2.20;;;3.90;70.80;;;;;;7590168;19;20018;-76
2023/03/11 09:45:20;;;;;;;3.33;1.90;;;3.90;68.80;;;;;;7577531;19;20014;-76
2023/03/11 09:48:07;;;;;;;1.92;1.63;;;3.90;68.50;;;;;;7607848;19;20018;-76
2023/03/11 09:50:47;;;;;;;6.22;2.30;;;4.00;68.80;;;;;;7588830;19;20010;-80
2023/03/11 09:53:28;;;;;;;3.88;2.22;;;3.70;68.40;;;;;;7581106;19;20086;-72
2023/03/11 09:56:03;;;;;;;5.97;2.00;;;3.70;70.00;;;;;;7591236;19;20513;-74
2023/03/11 09:58:49;;;;;;;4.78;2.00;;;4.00;69.80;;;;;;7591789;19;20047;-73
2023/03/11 10:01:29;;;;;;;5.28;2.00;;;4.10;68.00;;;;;;7594115;19;20014;-76
2023/03/11 10:04:17;;;;;;;4.25;2.15;;;4.20;68.10;;;;;;7602257;19;20043;-75
2023/03/11 10:06:50;;;;;;;6.60;1.92;;;4.30;68.50;;;;;;7587328;19;20092;-74
2023/03/11 10:09:29;;;;;;;;;;;4.40;67.90;;;;;;7600542;19;20465;-74
2023/03/11 10:12:07;;;;;;;3.63;1.60;;;4.50;67.20;;;;;;7582438;19;19970;-75
2023/03/11 10:14:46;;;;;;;3.53;1.63;;;4.40;64.60;;;;;;7571409;19;20018;-73
2023/03/11 10:17:45;;;;;;;5.22;1.35;;;4.50;65.50;;;;;;7588514;19;20022;-72
2023/03/11 10:20:18;;;;;;;4.57;2.05;;;4.80;66.30;;;;;;7568845;19;20022;-73
2023/03/11 10:23:40;;;;;;;12.65;4.93;;;4.90;65.80;;;;;;7605109;19;20032;-73
2023/03/11 10:26:18;;;;;;;3.20;1.52;;;4.80;64.40;;;;;;7591117;19;20022;-74
2023/03/11 10:29:05;;;;;;;4.55;1.85;;;4.80;62.80;;;;;;7564642;19;20046;-74
2023/03/11 10:31:40;;;;;;;5.47;1.90;;;4.70;61.50;;;;;;7603705;19;20021;-71
2023/03/11 10:34:21;;;;;;;3.25;1.40;;;4.70;61.40;;;;;;7590660;19;20018;-73
2023/03/11 10:37:15;;;;;;;4.25;1.63;;;4.90;62.00;;;;;;7597881;19;20009;-74
2023/03/11 10:39:47;;;;;;;6.72;2.30;;;4.60;60.50;;;;;;7596416;19;20014;-74
2023/03/11 10:42:24;;;;;;;2.65;1.80;;;4.60;59.60;;;;;;7565609;19;20021;-77
2023/03/11 10:44:56;;;;;;;15.05;5.07;;;4.50;60.30;;;;;;7586269;19;20478;-77
2023/03/11 10:47:28;;;;;;;6.18;3.00;;;4.40;60.40;;;;;;7584439;19;20049;-78
2023/03/11 10:50:00;;;;;;;21.50;6.93;;;4.50;60.80;;;;;;7606261;19;20025;-79
2023/03/11 10:52:51;;;;;;;12.85;3.85;;;4.50;60.10;;;;;;7601394;19;20083;-78
2023/03/11 10:55:23;;;;;;;20.55;7.00;;;4.60;62.40;;;;;;7568723;19;20025;-80
2023/03/11 10:58:13;;;;;;;9.77;3.50;;;4.60;59.60;;;;;;7598942;19;20577;-81
2023/03/11 11:00:45;;;;;;;3.78;1.65;;;4.70;61.00;;;;;;7572540;19;20443;-78
2023/03/11 11:03:22;;;;;;;8.45;2.95;;;4.80;60.00;;;;;;7574258;19;20018;-77
2023/03/11 11:06:06;;;;;;;4.63;2.53;;;5.10;60.00;;;;;;7596003;19;20026;-77
2023/03/11 11:08:38;;;;;;;2.95;1.42;;;5.40;59.50;;;;;;7580009;19;20021;-75
2023/03/11 11:11:22;;;;;;;2.17;1.23;;;5.70;58.10;;;;;;7552139;19;20030;-71
2023/03/11 11:13:56;;;;;;;4.55;1.55;;;5.80;59.60;;;;;;7577273;19;20078;-75
2023/03/11 11:16:29;;;;;;;3.85;1.42;;;5.70;57.30;;;;;;7577606;19;20090;-75
2023/03/11 11:19:03;;;;;;;2.23;1.40;;;5.80;57.20;;;;;;7583746;19;20097;-76
2023/03/11 11:21:36;;;;;;;3.75;1.63;;;6.00;57.40;;;;;;7589929;19;20489;-76
2023/03/11 11:24:22;;;;;;;2.97;1.77;;;5.90;55.70;;;;;;7590506;19;20018;-76
2023/03/11 11:27:03;;;;;;;3.53;1.38;;;5.70;55.90;;;;;;7578233;19;20018;-75
2023/03/11 11:29:35;;;;;;;2.33;1.30;;;5.90;57.20;;;;;;7594559;19;20022;-76
2023/03/11 11:32:42;;;;;;;2.72;1.40;;;5.90;55.80;;;;;;7549575;19;20936;-77
2023/03/11 11:35:23;;;;;;;3.50;1.45;;;5.90;56.70;;;;;;7563689;19;20655;-76
2023/03/11 11:38:01;;;;;;;4.70;1.50;;;5.70;56.40;;;;;;7563884;19;20018;-76
2023/03/11 11:40:33;;;;;;;3.67;1.50;;;6.20;60.80;;;;;;7580883;19;20132;-75
2023/03/11 11:43:15;;;;;;;5.03;1.63;;;6.60;58.40;;;;;;7563779;19;20045;-72
2023/03/11 11:46:00;;;;;;;5.28;1.77;;;7.10;56.20;;;;;;7572676;19;20500;-73
2023/03/11 11:48:55;;;;;;;1.83;1.63;;;8.10;53.40;;;;;;7580425;19;20018;-76
2023/03/11 11:51:30;;;;;;;;;;;9.40;50.60;;;;;;7553605;19;20625;-72
2023/03/11 11:54:29;;;;;;;2.40;1.52;;;9.90;47.60;;;;;;7571422;19;19922;-73
2023/03/11 11:57:13;;;;;;;3.65;1.83;;;9.90;48.20;;;;;;7581401;19;20742;-73
2023/03/11 11:59:47;;;;;;;3.55;1.52;;;10.60;47.90;;;;;;7595413;19;20869;-73
2023/03/11 12:02:38;;;;;;;;;;;10.40;49.00;;;;;;7557054;19;20570;-74
2023/03/11 12:05:26;;;;;;;1.65;1.30;;;10.10;48.20;;;;;;7587773;19;19914;-73
2023/03/11 12:08:29;;;;;;;4.38;1.63;;;10.40;47.80;;;;;;7561252;19;20018;-73
2023/03/11 12:11:26;;;;;;;3.97;1.50;;;11.00;46.60;;;;;;7545796;19;20526;-74
2023/03/11 12:14:11;;;;;;;5.40;1.40;;;10.80;43.80;;;;;;7588885;19;20022;-75
2023/03/11 12:17:03;;;;;;;2.42;1.38;;;11.50;44.10;;;;;;7586437;19;20014;-75
2023/03/11 12:19:43;;;;;;;3.30;1.27;;;12.20;42.00;;;;;;7575291;19;20073;-75
2023/03/11 12:22:42;;;;;;;2.92;1.50;;;12.40;41.80;;;;;;7593802;19;20011;-75
2023/03/11 12:25:32;;;;;;;8.88;1.38;;;12.30;41.50;;;;;;7574687;19;20022;-75
2023/03/11 12:28:30;;;;;;;5.22;1.63;;;11.70;40.30;;;;;;7553816;19;20018;-73
2023/03/11 12:31:07;;;;;;;2.55;1.65;;;12.40;42.60;;;;;;7586143;19;20065;-73
2023/03/11 12:33:41;;;;;;;2.60;1.23;;;12.80;41.60;;;;;;7602620;19;20018;-72
2023/03/11 12:36:22;;;;;;;8.38;1.40;;;12.80;40.00;;;;;;7550870;19;20027;-74
2023/03/11 12:38:55;;;;;;;4.55;1.60;;;13.70;39.90;;;;;;7525654;19;20770;-72
2023/03/11 12:41:41;;;;;;;2.90;1.40;;;13.50;37.70;;;;;;7600866;19;20019;-73
2023/03/11 12:44:29;;;;;;;2.50;1.30;;;13.70;37.90;;;;;;7541925;19;20182;-71
2023/03/11 12:47:07;;;;;;;2.63;1.40;;;12.90;38.20;;;;;;7528962;19;20025;-72
2023/03/11 12:49:42;;;;;;;2.03;1.10;;;13.10;37.50;;;;;;7550465;19;20010;-72
2023/03/11 12:52:21;;;;;;;2.60;1.30;;;13.70;37.70;;;;;;7556766;19;20015;-74
2023/03/11 12:55:00;;;;;;;3.15;1.42;;;13.40;37.50;;;;;;7581270;19;20052;-75
2023/03/11 12:57:47;;;;;;;3.97;1.70;;;13.70;36.90;;;;;;7582391;19;20015;-74
2023/03/11 13:00:39;;;;;;;4.18;1.60;;;14.00;37.50;;;;;;7584578;19;20597;-74
2023/03/11 13:03:23;;;;;;;5.10;2.30;;;14.00;36.30;;;;;;7583639;19;20010;-73
2023/03/11 13:06:39;;;;;;;4.90;1.80;;;14.00;36.30;;;;;;7570817;19;20025;-74
2023/03/11 13:09:15;;;;;;;1.67;1.38;;;14.30;37.80;;;;;;7595665;19;20013;-74
2023/03/11 13:11:48;;;;;;;5.20;1.83;;;15.00;37.10;;;;;;7571663;19;20116;-74
2023/03/11 13:14:33;;;;;;;4.30;1.73;;;15.00;36.60;;;;;;7591681;19;20594;-74
2023/03/11 13:17:24;;;;;;;3.08;1.45;;;14.40;35.90;;;;;;7598724;19;20518;-73
2023/03/11 13:19:58;;;;;;;5.93;1.73;;;14.50;36.50;;;;;;7607522;19;21496;-73
2023/03/11 13:23:08;;;;;;;2.63;1.80;;;15.40;36.80;;;;;;7601373;19;20014;-73
2023/03/11 13:25:55;;;;;;;3.42;1.73;;;15.80;35.40;;;;;;7602162;19;20359;-73
2023/03/11 13:28:36;;;;;;;2.17;1.55;;;15.70;36.20;;;;;;7610504;19;20021;-72
2023/03/11 13:31:11;;;;;;;4.88;1.75;;;16.20;35.20;;;;;;7606748;19;20022;-74
2023/03/11 13:33:55;;;;;;;4.03;1.42;;;16.20;35.30;;;;;;7608386;19;20892;-72
2023/03/11 13:36:48;;;;;;;3.75;1.50;;;16.70;34.40;;;;;;7607596;19;20025;-73
2023/03/11 13:39:44;;;;;;;5.18;2.13;;;17.00;34.10;;;;;;7574053;19;20094;-74
2023/03/11 13:42:32;;;;;;;6.85;2.47;;;17.20;33.20;;;;;;7567024;19;20060;-73
2023/03/11 13:45:11;;;;;;;12.13;2.85;;;16.40;33.10;;;;;;7593739;19;20014;-74